Latest Weather Observations for Brisbane

IDQ60901

Issued at 2:05 pm EST Wednesday 23 July 2014 (issued every 10 minutes, with the page automatically refreshed every 10 minutes)

About weather observations | Map of Brisbane area stations | Latest observations for Brisbane area | Other Formats
Station Details ID: 040913 Name: BRISBANE Lat: -27.48 Lon: 153.04 Height: 8.13 m
Data from the previous 72 hours. | See also: Recent months at Brisbane
Date/Time
EST
Tmp

°C
App
Tmp
°C
Dew
Point
°C
Rel
Hum
%
Delta-T

°C
Wind Press
QNH
hPa
Press
MSL
hPa
Rain
since
9 am
mm
Dir
 
Spd
km/h
Gust
km/h
Spd
kts
Gust
kts
23/02:00pm 21.9 20.8 8.4 42 7.1 NE 4 7 2 4 1020.1 1020.1 0.2
23/01:30pm 21.6 21.0 8.8 44 6.8 SSW 2 6 1 3 1020.3 - 0.2
23/01:00pm 20.6 19.4 9.5 49 5.9 S 6 13 3 7 1020.4 1020.4 0.2
23/12:30pm 20.6 19.5 10.1 51 5.6 S 6 11 3 6 1020.8 - 0.2
23/12:00pm 20.1 18.9 9.7 51 5.5 SSE 6 9 3 5 1021.6 1021.6 0.2
23/11:30am 19.4 18.5 9.3 52 5.3 S 4 9 2 5 1022.3 - 0.2
23/11:00am 18.6 17.5 9.9 57 4.6 SW 6 9 3 5 1022.7 1022.7 0.0
23/10:30am 17.9 17.0 10.5 62 4.0 SW 6 13 3 7 1023.3 - 0.0
23/10:00am 16.9 15.8 9.8 63 3.7 SSW 6 13 3 7 1023.6 1023.6 0.0
23/09:30am 16.0 15.0 10.3 69 3.0 SW 6 11 3 6 1023.7 - 0.0
23/09:00am 14.5 13.3 10.3 76 2.2 SW 7 15 4 8 1023.7 1023.7 2.4
23/08:30am 13.3 12.3 10.3 82 1.6 SW 6 11 3 6 1023.5 - 2.4
23/08:00am 11.9 11.2 10.0 88 1.0 SW 4 9 2 5 1023.1 1023.1 2.4
23/07:30am 10.7 9.5 9.6 93 0.6 SW 6 9 3 5 1022.8 - 2.4
23/07:00am 9.6 9.0 8.8 95 0.4 SSW 2 6 1 3 1022.5 1022.5 2.4
23/06:30am 9.6 9.0 8.8 95 0.4 S 2 6 1 3 1022.1 - 2.4
23/06:00am 9.7 9.1 8.9 95 0.4 SW 2 7 1 4 1021.5 1021.5 2.4
23/05:30am 10.0 9.1 9.2 95 0.4 WSW 4 6 2 3 1021.2 - 2.4
23/05:00am 10.3 9.5 9.7 96 0.3 WSW 4 7 2 4 1021.1 1021.1 2.4
23/04:30am 10.4 9.6 9.8 96 0.3 SW 4 7 2 4 1020.9 - 2.4
23/04:00am 10.3 10.2 9.5 95 0.4 WSW 0 2 0 1 1020.7 1020.7 2.4
23/03:30am 10.8 10.1 10.0 95 0.4 SSW 4 6 2 3 1020.8 - 2.4
23/03:00am 10.6 10.6 9.8 95 0.4 CALM 0 2 0 1 1021.1 1021.1 2.2
23/02:30am 11.1 10.4 10.2 94 0.5 WSW 4 9 2 5 1021.1 - 2.2
23/02:00am 11.5 11.0 10.6 94 0.5 SW 4 9 2 5 1021.4 1021.4 2.2
23/01:30am 11.8 11.0 11.0 95 0.4 WSW 6 11 3 6 1021.1 - 2.2
23/01:00am 11.8 11.7 10.9 94 0.5 WSW 2 6 1 3 1021.2 1021.2 2.2
23/12:30am 12.3 11.6 11.4 94 0.5 WSW 6 9 3 5 1021.2 - 2.2
23/12:00am 12.5 12.2 11.6 94 0.5 W 4 11 2 6 1021.5 1021.5 2.2
 
Date/Time
EST
Tmp

°C
App
Tmp
°C
Dew
Point
°C
Rel
Hum
%
Delta-T

°C
Wind Press
QNH
hPa
Press
MSL
hPa
Rain
since
9 am
mm
Dir
 
Spd
km/h
Gust
km/h
Spd
kts
Gust
kts
22/11:30pm 12.5 12.5 11.2 92 0.7 WSW 2 4 1 2 1021.5 - 2.2
22/11:00pm 13.2 13.7 11.6 90 0.8 CALM 0 4 0 2 1021.8 1021.8 2.2
22/10:30pm 13.2 13.4 11.8 91 0.7 W 2 4 1 2 1021.8 - 2.2
22/10:00pm 13.8 13.7 12.2 90 0.9 W 4 6 2 3 1022.0 1022.0 2.2
22/09:30pm 14.3 15.1 12.5 89 1.0 CALM 0 4 0 2 1022.0 - 2.2
22/09:00pm 14.4 14.5 12.6 89 1.0 SSE 4 7 2 4 1021.9 1021.9 2.2
22/08:30pm 14.2 15.1 12.8 91 0.8 CALM 0 6 0 3 1021.8 - 2.2
22/08:00pm 14.2 14.8 13.1 93 0.6 SE 2 6 1 3 1021.6 1021.6 2.2
22/07:30pm 13.9 14.5 13.0 94 0.5 SSE 2 6 1 3 1021.5 - 2.2
22/07:00pm 13.8 14.7 13.0 95 0.4 CALM 0 0 0 0 1021.2 1021.2 2.2
22/06:30pm 13.1 13.7 11.8 92 0.7 CALM 0 0 0 0 1020.7 - 2.2
22/06:00pm 13.6 14.1 11.7 88 1.0 CALM 0 0 0 0 1020.6 1020.6 2.2
22/05:30pm 14.2 14.4 11.7 85 1.3 SSE 2 4 1 2 1020.5 - 2.2
22/05:00pm 14.2 13.6 11.7 85 1.3 NNE 6 11 3 6 1020.2 1020.2 2.2
22/04:30pm 17.3 15.7 10.2 63 3.8 ESE 9 22 5 12 1020.1 - 0.2
22/04:00pm 17.5 15.8 9.9 61 4.0 ESE 9 19 5 10 1019.2 1019.2 0.2
22/03:30pm 19.2 16.7 11.0 59 4.5 ESE 15 28 8 15 1018.8 - 0.2
22/03:00pm 21.4 20.6 9.6 47 6.3 WNW 4 9 2 5 1018.2 1018.2 0.2
22/02:30pm 22.3 21.2 10.1 46 6.6 N 6 11 3 6 1018.3 - 0.2
22/02:00pm 21.8 20.7 10.0 47 6.4 SW 6 9 3 5 1018.6 1018.6 0.2
22/01:30pm 21.2 20.8 11.0 52 5.6 E 4 7 2 4 1019.0 - 0.2
22/01:00pm 20.4 20.1 11.3 56 5.0 ESE 4 6 2 3 1019.4 1019.4 0.2
22/12:30pm 19.3 19.1 11.8 62 4.1 S 4 9 2 5 1019.9 - 0.2
22/12:00pm 19.0 18.9 12.0 64 3.9 SSW 4 7 2 4 1020.5 1020.5 0.2
22/11:30am 17.4 17.6 13.1 76 2.4 WSW 4 13 2 7 1021.3 - 0.2
22/11:00am 17.2 17.6 12.5 74 2.6 SSW 2 7 1 4 1021.7 1021.7 0.2
22/10:30am 17.5 17.0 10.9 65 3.6 SSW 4 7 2 4 1022.2 - 0.0
22/10:00am 19.1 18.4 11.4 61 4.2 SW 6 9 3 5 1022.6 1022.6 0.0
22/09:30am 17.1 16.8 11.4 69 3.1 WSW 4 9 2 5 1022.7 - 0.0
22/09:00am 15.5 14.9 11.7 78 2.0 WSW 6 11 3 6 1022.7 1022.7 0.0
22/08:30am 13.8 13.3 10.6 81 1.7 SW 4 9 2 5 1022.7 - 0.0
22/08:00am 13.8 13.5 11.5 86 1.2 S 4 7 2 4 1022.5 1022.5 0.0
22/07:30am 11.6 11.4 10.5 93 0.6 SW 2 7 1 4 1022.3 - 0.0
22/07:00am 10.9 10.2 10.1 95 0.4 SW 4 7 2 4 1021.9 1021.9 0.0
22/06:30am 10.9 9.9 10.3 96 0.3 WSW 6 9 3 5 1021.7 - 0.0
22/06:00am 11.0 10.3 10.2 95 0.4 WSW 4 7 2 4 1021.5 1021.5 0.0
22/05:30am 11.0 10.7 10.2 95 0.4 WSW 2 6 1 3 1021.2 - 0.0
22/05:00am 11.0 10.7 10.1 94 0.5 W 2 4 1 2 1021.0 1021.0 0.0
22/04:30am 11.5 11.0 10.6 94 0.5 WSW 4 6 2 3 1020.8 - 0.0
22/04:00am 11.5 10.9 10.4 93 0.6 WSW 4 7 2 4 1020.9 1020.9 0.0
22/03:30am 11.8 11.7 10.7 93 0.6 WSW 2 6 1 3 1021.1 - 0.0
22/03:00am 11.8 11.7 10.9 94 0.5 WSW 2 4 1 2 1021.1 1021.1 0.0
22/02:30am 11.8 11.9 10.2 90 0.8 CALM 0 0 0 0 1021.1 - 0.0
22/02:00am 12.6 12.5 10.8 89 0.9 SW 2 4 1 2 1021.1 1021.1 0.0
22/01:30am 12.9 13.2 10.8 87 1.1 CALM 0 2 0 1 1021.4 - 0.0
22/01:00am 13.1 12.8 11.3 89 0.9 W 4 6 2 3 1021.7 1021.7 0.0
22/12:30am 12.9 13.3 11.1 89 0.9 CALM 0 0 0 0 1021.8 - 0.0
22/12:00am 13.2 13.5 10.9 86 1.2 CALM 0 4 0 2 1021.9 1021.9 0.0
 
Date/Time
EST
Tmp

°C
App
Tmp
°C
Dew
Point
°C
Rel
Hum
%
Delta-T

°C
Wind Press
QNH
hPa
Press
MSL
hPa
Rain
since
9 am
mm
Dir
 
Spd
km/h
Gust
km/h
Spd
kts
Gust
kts
21/11:30pm 13.8 14.2 11.1 84 1.4 CALM 0 4 0 2 1022.1 - 0.0
21/11:00pm 13.7 13.9 10.7 82 1.6 CALM 0 4 0 2 1022.3 1022.3 0.0
21/10:30pm 14.2 14.3 11.5 84 1.4 SSE 2 6 1 3 1022.3 - 0.0
21/10:00pm 14.4 14.8 11.4 82 1.6 CALM 0 0 0 0 1022.4 1022.4 0.0
21/09:30pm 15.2 15.4 11.8 80 1.8 SSE 2 4 1 2 1022.3 - 0.0
21/09:00pm 15.7 15.6 12.1 79 2.0 SE 4 7 2 4 1022.1 1022.1 0.0
21/08:30pm 16.1 16.1 12.3 78 2.1 ESE 4 9 2 5 1022.1 - 0.0
21/08:00pm 16.1 16.4 12.1 77 2.2 SE 2 4 1 2 1022.3 1022.3 0.0
21/07:30pm 16.4 16.7 12.2 76 2.3 ESE 2 7 1 4 1022.1 - 0.0
21/07:00pm 16.9 17.2 12.2 74 2.6 E 2 6 1 3 1022.0 1022.0 0.0
21/06:30pm 17.0 17.2 11.9 72 2.8 E 2 6 1 3 1021.8 - 0.0
21/06:00pm 17.6 17.0 11.6 68 3.3 E 6 11 3 6 1021.5 1021.5 0.0
21/05:30pm 18.2 17.3 11.3 64 3.8 E 7 19 4 10 1021.2 - 0.0
21/05:00pm 18.7 18.0 11.3 62 4.0 ESE 6 11 3 6 1021.0 1021.0 0.0
21/04:30pm 19.2 18.0 11.5 61 4.2 E 9 17 5 9 1020.7 - 0.0
21/04:00pm 19.5 17.6 10.5 56 4.8 ESE 11 19 6 10 1020.4 1020.4 0.0
21/03:30pm 20.2 18.9 11.1 56 5.0 ESE 9 17 5 9 1020.1 - 0.0
21/03:00pm 20.3 19.4 11.2 56 5.0 ESE 7 13 4 7 1020.1 1020.1 0.0
21/02:30pm 20.6 19.1 10.7 53 5.4 ESE 9 17 5 9 1020.0 - 0.0
21/02:00pm 20.6 19.1 10.4 52 5.5 E 9 15 5 8 1019.8 1019.8 0.0
21/01:30pm 19.9 19.0 11.4 58 4.7 E 7 13 4 7 1020.0 - 0.0
21/01:00pm 19.4 18.3 11.9 62 4.1 E 9 17 5 9 1020.4 1020.4 0.0
21/12:30pm 20.6 20.0 11.8 57 4.9 ESE 6 11 3 6 1020.7 - 0.0
21/12:00pm 20.1 18.8 11.3 57 4.8 ESE 9 13 5 7 1021.4 1021.4 0.0
21/11:30am 21.2 20.1 11.8 55 5.2 SE 9 17 5 9 1022.0 - 0.0
21/11:00am 20.7 19.6 11.9 57 4.9 SSE 9 17 5 9 1022.6 1022.6 0.0
21/10:30am 19.5 18.7 11.0 58 4.6 SSW 6 11 3 6 1023.0 - 0.0
21/10:00am 18.4 17.3 10.5 60 4.2 S 7 13 4 7 1023.2 1023.2 0.0
21/09:30am 17.3 16.2 10.7 65 3.5 SSW 7 11 4 6 1023.4 - 0.0
21/09:00am 15.7 14.7 10.2 70 2.9 WSW 6 9 3 5 1023.5 1023.5 0.0
21/08:30am 14.1 13.3 9.7 75 2.3 SW 4 7 2 4 1023.5 - 0.0
21/08:00am 13.5 12.7 9.6 77 2.0 WSW 4 9 2 5 1023.4 1023.4 0.0
21/07:30am 12.2 11.3 9.2 82 1.5 WSW 4 7 2 4 1023.1 - 0.0
21/07:00am 11.1 10.1 8.7 85 1.2 W 4 7 2 4 1022.5 1022.5 0.0
21/06:30am 11.4 10.7 8.6 83 1.4 WSW 2 6 1 3 1022.3 - 0.0
21/06:00am 11.8 10.8 9.0 83 1.4 WSW 4 7 2 4 1021.9 1021.9 0.0
21/05:30am 11.8 10.2 8.8 82 1.5 W 7 11 4 6 1021.7 - 0.0
21/05:00am 11.7 10.7 8.9 83 1.4 SW 4 7 2 4 1021.4 1021.4 0.0
21/04:30am 11.8 10.8 9.0 83 1.4 W 4 7 2 4 1021.2 - 0.0
21/04:00am 11.7 10.7 8.7 82 1.5 W 4 7 2 4 1021.3 1021.3 0.0
21/03:30am 11.6 10.8 8.1 79 1.7 WSW 2 6 1 3 1021.3 - 0.0
21/03:00am 12.0 10.8 8.1 77 1.9 WSW 4 7 2 4 1021.3 1021.3 0.0
21/02:30am 12.1 10.8 7.8 75 2.1 WSW 4 6 2 3 1021.2 - 0.0
21/02:00am 12.6 11.7 7.9 73 2.3 SSW 2 6 1 3 1021.4 1021.4 0.0
21/01:30am 13.1 11.9 8.2 72 2.4 W 4 7 2 4 1021.6 - 0.0
21/01:00am 13.2 11.6 8.1 71 2.5 W 6 9 3 5 1021.8 1021.8 0.0
21/12:30am 13.4 11.8 8.0 70 2.7 WSW 6 9 3 5 1021.8 - 0.0
21/12:00am 12.8 11.6 7.9 72 2.4 SW 4 9 2 5 1021.8 1021.8 0.0
 
Date/Time
EST
Tmp

°C
App
Tmp
°C
Dew
Point
°C
Rel
Hum
%
Delta-T

°C
Wind Press
QNH
hPa
Press
MSL
hPa
Rain
since
9 am
mm
Dir
 
Spd
km/h
Gust
km/h
Spd
kts
Gust
kts
20/11:30pm 13.1 12.6 8.0 71 2.5 CALM 0 0 0 0 1021.7 - 0.0
20/11:00pm 13.2 12.9 8.5 73 2.3 CALM 0 0 0 0 1021.8 1021.8 0.0
20/10:30pm 11.5 10.9 7.4 76 2.0 CALM 0 0 0 0 1022.1 - 0.0
20/10:00pm 11.7 11.1 7.6 76 2.0 CALM 0 0 0 0 1021.9 1021.9 0.0
20/09:30pm 12.0 11.4 7.5 74 2.2 CALM 0 0 0 0 1021.7 - 0.0
20/09:00pm 12.3 11.7 7.2 71 2.4 CALM 0 0 0 0 1021.7 1021.7 0.0
20/08:30pm 12.8 12.2 7.5 70 2.6 CALM 0 0 0 0 1021.5 - 0.0
20/08:00pm 12.9 12.3 7.6 70 2.6 CALM 0 2 0 1 1021.4 1021.4 0.0
20/07:30pm 12.9 12.3 7.4 69 2.7 CALM 0 0 0 0 1021.2 - 0.0
20/07:00pm 13.5 12.9 7.3 66 3.0 CALM 0 0 0 0 1020.9 1020.9 0.0
20/06:30pm 14.3 13.7 7.6 64 3.3 CALM 0 2 0 1 1020.5 - 0.0
20/06:00pm 14.8 14.1 6.9 59 3.8 CALM 0 0 0 0 1020.2 1020.2 0.0
20/05:30pm 16.0 15.2 6.7 54 4.6 CALM 0 2 0 1 1019.8 - 0.0
20/05:00pm 18.3 17.2 6.8 47 5.7 NNE 2 4 1 2 1019.7 1019.7 0.0
20/04:30pm 19.4 17.3 6.8 44 6.3 ENE 7 11 4 6 1019.3 - 0.0
20/04:00pm 20.1 18.0 6.8 42 6.7 E 7 13 4 7 1019.0 1019.0 0.0
20/03:30pm 21.0 18.5 6.5 39 7.3 S 9 17 5 9 1018.9 - 0.0
20/03:00pm 22.2 20.0 5.2 33 8.4 S 6 11 3 6 1018.9 1018.9 0.0
20/02:30pm 22.3 20.2 5.7 34 8.3 WSW 6 15 3 8 1019.1 - 0.0

Latest Capital City Observations: Canberra | Sydney | Melbourne | Brisbane | Adelaide | Perth | Hobart | Darwin

Other Formats:

Comma delimited format used in spreadsheet applications
http://www.bom.gov.au/fwo/IDQ60901/IDQ60901.94576.axf

JavaScript Object Notation format (JSON) in row-major order
http://www.bom.gov.au/fwo/IDQ60901/IDQ60901.94576.json